Terminal Aerodrome Forecast
Issued by NWS

Home | Current Version | Previous Version | Text Only | Print | Product List | Glossary Off
Versions: 1 2 3 4 5 6 7 8 9 10 11 12 13 14 15 16 17 18 19 20 21 22 23 24 25 26 27 28

000
FTUS43 KLOT 241753
TAFDPA
TAF
KDPA 241753Z 2418/2518 08010KT 5SM BR BKN015 OVC060
      TEMPO 2418/2421 -RA
     FM242300 11012G18KT P6SM VCSH OVC008
     FM250300 12015G25KT 2SM -SHRA BR OVC006
     FM250630 25022G32KT P6SM BKN020
     FM251300 25018G28KT P6SM SKC=

USA.gov is the U.S. government's official web portal to all federal, state and local government web resources and services.